createdAt,value
2022-08-05T00:01:55.211Z,20.80
2022-08-05T00:06:01.798Z,20.97
2022-08-05T00:08:41.066Z,20.84
2022-08-05T00:11:48.451Z,20.62
2022-08-05T00:15:54.023Z,20.55
2022-08-05T00:18:25.793Z,20.60
2022-08-05T00:21:38.841Z,20.27
2022-08-05T00:24:48.604Z,20.01
2022-08-05T00:28:00.204Z,19.89
2022-08-05T00:31:07.501Z,20.08
2022-08-05T00:34:56.489Z,20.14
2022-08-05T00:37:53.587Z,20.22
2022-08-05T00:41:01.939Z,20.31
2022-08-05T00:44:07.198Z,20.46
2022-08-05T00:47:12.122Z,20.61
2022-08-05T00:50:21.456Z,20.34
2022-08-05T00:53:45.432Z,20.41
2022-08-05T00:56:55.866Z,20.59
2022-08-05T01:00:02.423Z,20.56
2022-08-05T01:03:22.756Z,20.54
2022-08-05T01:06:32.570Z,20.44
2022-08-05T01:09:39.285Z,20.35
2022-08-05T01:13:03.222Z,20.37
2022-08-05T01:16:26.618Z,20.06
2022-08-05T01:20:02.341Z,20.07
2022-08-05T01:23:15.346Z,20.28
2022-08-05T01:26:52.867Z,19.67
2022-08-05T01:30:17.736Z,19.67
2022-08-05T01:33:35.378Z,19.66
2022-08-05T01:36:51.059Z,19.81
2022-08-05T01:39:59.101Z,19.80
2022-08-05T01:43:05.669Z,19.71
2022-08-05T01:46:16.410Z,19.81
2022-08-05T01:50:00.253Z,19.44
2022-08-05T01:53:06.402Z,19.17
2022-08-05T01:58:11.437Z,19.33
2022-08-05T01:59:47.095Z,19.51
2022-08-05T02:02:59.931Z,19.03
2022-08-05T02:06:24.107Z,19.19
2022-08-05T02:09:38.138Z,19.42
2022-08-05T02:12:54.227Z,19.41
2022-08-05T02:16:06.079Z,18.90
2022-08-05T02:19:20.250Z,19.05
2022-08-05T02:22:32.764Z,19.04
2022-08-05T02:25:50.140Z,18.91
2022-08-05T02:28:58.122Z,19.23
2022-08-05T02:32:04.709Z,19.17
2022-08-05T02:35:15.490Z,18.61
2022-08-05T02:38:35.547Z,18.69
2022-08-05T02:41:58.084Z,18.74
2022-08-05T02:45:06.494Z,19.04
2022-08-05T02:48:13.026Z,19.16
2022-08-05T02:51:28.554Z,19.00
2022-08-05T02:54:50.666Z,18.85
2022-08-05T02:58:09.763Z,18.78
2022-08-05T03:01:25.045Z,18.67
2022-08-05T03:04:32.069Z,19.11
2022-08-05T03:07:59.199Z,18.87
2022-08-05T03:11:54.843Z,19.20
2022-08-05T03:14:30.296Z,19.16
2022-08-05T03:17:34.733Z,19.29
2022-08-05T03:20:48.767Z,19.14
2022-08-05T03:23:56.351Z,18.82
2022-08-05T03:27:02.185Z,18.47
2022-08-05T03:30:09.067Z,18.84
2022-08-05T03:33:18.077Z,19.10
2022-08-05T03:36:28.027Z,19.07
2022-08-05T03:39:57.748Z,18.99
2022-08-05T03:43:01.452Z,18.96
2022-08-05T03:46:29.809Z,18.74
2022-08-05T03:49:51.347Z,18.87
2022-08-05T03:55:33.980Z,18.70
2022-08-05T03:56:41.330Z,18.38
2022-08-05T03:59:54.894Z,18.72
2022-08-05T04:03:03.053Z,18.86
2022-08-05T04:06:09.714Z,18.90
2022-08-05T04:09:14.440Z,19.10
2022-08-05T04:12:27.692Z,18.82
2022-08-05T04:15:35.921Z,18.54
2022-08-05T04:18:41.224Z,18.98
2022-08-05T04:21:45.880Z,19.18
2022-08-05T04:25:12.488Z,19.32
2022-08-05T04:28:30.921Z,19.49
2022-08-05T04:31:39.485Z,19.51
2022-08-05T04:34:43.693Z,19.70
2022-08-05T04:38:03.011Z,19.83
2022-08-05T04:41:10.747Z,19.65
2022-08-05T04:44:21.491Z,19.95
2022-08-05T04:47:38.562Z,20.14
2022-08-05T04:51:03.117Z,20.43
2022-08-05T04:54:15.700Z,20.85
2022-08-05T04:57:20.306Z,21.24
2022-08-05T05:00:26.453Z,21.55
2022-08-05T05:03:41.931Z,21.20
2022-08-05T05:06:52.025Z,21.67
2022-08-05T05:10:06.321Z,22.12
2022-08-05T05:13:11.774Z,21.94
2022-08-05T05:16:20.087Z,22.57
2022-08-05T05:19:36.539Z,22.59
2022-08-05T05:22:49.197Z,23.16
2022-08-05T05:26:00.500Z,23.63
2022-08-05T05:29:13.649Z,23.81
2022-08-05T05:32:21.236Z,24.20
2022-08-05T05:35:31.583Z,24.28
2022-08-05T05:38:42.840Z,24.73
2022-08-05T05:41:54.246Z,24.85
2022-08-05T05:45:00.436Z,25.16
2022-08-05T05:48:11.008Z,25.28
2022-08-05T05:51:24.003Z,25.55
2022-08-05T05:54:50.537Z,25.81
2022-08-05T05:57:54.468Z,26.03
2022-08-05T06:01:12.719Z,26.22
2022-08-05T06:04:20.571Z,26.36
2022-08-05T06:07:41.819Z,26.52
2022-08-05T06:10:52.500Z,26.54
2022-08-05T06:13:57.662Z,26.47
2022-08-05T06:17:22.388Z,26.69
2022-08-05T06:20:30.843Z,26.45
2022-08-05T06:23:43.924Z,26.92
2022-08-05T06:26:51.671Z,27.09
2022-08-05T06:30:02.736Z,27.54
2022-08-05T06:33:19.013Z,27.94
2022-08-05T06:36:25.963Z,28.19
2022-08-05T06:39:32.635Z,28.53
2022-08-05T06:42:36.792Z,28.83
2022-08-05T06:46:06.761Z,29.26
2022-08-05T06:49:08.372Z,29.63
2022-08-05T06:52:37.336Z,30.01
2022-08-05T06:55:42.020Z,30.57
2022-08-05T06:58:46.759Z,31.10
2022-08-05T07:01:52.872Z,31.47
2022-08-05T07:04:57.194Z,31.97
2022-08-05T07:08:03.754Z,32.33
2022-08-05T07:11:08.396Z,32.61
2022-08-05T07:14:37.031Z,32.97
2022-08-05T07:18:08.536Z,33.52
2022-08-05T07:21:08.193Z,33.14
2022-08-05T07:24:15.376Z,33.00
2022-08-05T07:27:19.077Z,33.24
2022-08-05T07:30:31.954Z,33.85
2022-08-05T07:33:37.679Z,34.31
2022-08-05T07:36:45.792Z,34.40
2022-08-05T07:40:26.951Z,34.97
2022-08-05T07:43:21.293Z,35.20
2022-08-05T07:46:26.575Z,35.33
2022-08-05T07:49:30.975Z,35.90
2022-08-05T07:52:39.961Z,36.29
2022-08-05T07:56:06.172Z,36.83
2022-08-05T07:59:09.638Z,36.84
2022-08-05T08:02:16.429Z,37.19
2022-08-05T08:09:14.393Z,37.80
2022-08-05T08:12:49.332Z,37.81
2022-08-05T08:16:35.401Z,38.14
2022-08-05T08:20:22.604Z,37.94
2022-08-05T08:24:01.161Z,37.42
2022-08-05T08:27:01.749Z,36.85
2022-08-05T08:30:32.787Z,35.82
2022-08-05T08:33:40.739Z,36.13
2022-08-05T08:37:03.391Z,36.00
2022-08-05T08:40:22.595Z,35.67
2022-08-05T08:45:19.347Z,35.37
2022-08-05T08:46:53.958Z,35.38
2022-08-05T08:50:30.919Z,35.29
2022-08-05T08:53:40.208Z,34.70
2022-08-05T08:56:49.555Z,34.81
2022-08-05T08:59:56.130Z,34.74
2022-08-05T09:03:02.552Z,34.49
2022-08-05T09:06:11.085Z,34.47
2022-08-05T09:09:17.524Z,34.37
2022-08-05T09:12:27.794Z,34.11
2022-08-05T09:15:31.995Z,34.00
2022-08-05T09:18:44.987Z,33.87
2022-08-05T09:22:21.829Z,33.96
2022-08-05T09:25:45.831Z,33.85
2022-08-05T09:28:48.989Z,33.83
2022-08-05T09:32:51.178Z,33.75
2022-08-05T09:35:32.919Z,33.90
2022-08-05T09:38:37.315Z,33.94
2022-08-05T09:41:58.504Z,33.80
2022-08-05T09:45:17.392Z,33.90
2022-08-05T09:48:27.230Z,33.91
2022-08-05T09:51:36.494Z,33.93
2022-08-05T09:54:40.720Z,33.96
2022-08-05T09:57:49.937Z,34.00
2022-08-05T10:01:13.494Z,34.07
2022-08-05T10:04:29.408Z,34.10
2022-08-05T10:08:36.660Z,34.07
2022-08-05T10:11:17.210Z,34.07
2022-08-05T10:14:26.621Z,34.10
2022-08-05T10:17:38.102Z,34.19
2022-08-05T10:20:48.440Z,34.04
2022-08-05T10:23:59.786Z,33.94
2022-08-05T10:27:04.932Z,34.02
2022-08-05T10:32:49.511Z,33.94
2022-08-05T10:34:12.734Z,33.78
2022-08-05T10:37:23.148Z,33.39
2022-08-05T10:41:10.070Z,33.37
2022-08-05T10:44:25.506Z,33.11
2022-08-05T10:47:36.191Z,33.02
2022-08-05T10:51:03.354Z,32.97
2022-08-05T10:54:28.580Z,32.83
2022-08-05T10:57:51.464Z,33.10
2022-08-05T11:01:02.774Z,33.29
2022-08-05T11:04:12.647Z,33.50
2022-08-05T11:07:32.911Z,33.60
2022-08-05T11:11:01.047Z,33.63
2022-08-05T11:14:57.700Z,33.61
2022-08-05T11:17:58.650Z,33.66
2022-08-05T11:21:25.903Z,33.43
2022-08-05T11:25:16.611Z,33.30
2022-08-05T11:28:56.709Z,33.19
2022-08-05T11:32:26.243Z,33.09
2022-08-05T11:36:04.448Z,33.24
2022-08-05T11:39:31.000Z,32.96
2022-08-05T11:42:43.237Z,33.03
2022-08-05T11:46:32.088Z,32.97
2022-08-05T11:49:27.753Z,32.84
2022-08-05T11:52:32.542Z,32.96
2022-08-05T11:55:38.182Z,32.91
2022-08-05T11:58:52.880Z,32.95
2022-08-05T12:01:58.975Z,32.91
2022-08-05T12:05:36.115Z,32.31
2022-08-05T12:08:51.235Z,32.49
2022-08-05T12:11:55.808Z,32.58
2022-08-05T12:15:00.115Z,32.44
2022-08-05T12:18:10.614Z,32.47
2022-08-05T12:21:20.670Z,32.44
2022-08-05T12:24:25.455Z,32.46
2022-08-05T12:27:33.355Z,32.66
2022-08-05T12:30:45.747Z,32.52
2022-08-05T12:33:50.323Z,32.64
2022-08-05T12:37:00.485Z,32.75
2022-08-05T12:40:11.076Z,32.78
2022-08-05T12:50:33.489Z,32.77
2022-08-05T12:53:44.099Z,32.88
2022-08-05T12:57:02.173Z,32.99
2022-08-05T13:02:02.217Z,33.01
2022-08-05T13:03:48.796Z,32.97
2022-08-05T13:06:57.916Z,32.99
2022-08-05T13:10:12.442Z,32.89
2022-08-05T13:14:06.133Z,32.96
2022-08-05T13:16:54.155Z,33.07
2022-08-05T13:20:02.824Z,33.07
2022-08-05T13:23:07.527Z,33.00
2022-08-05T13:26:16.081Z,32.94
2022-08-05T13:29:38.087Z,32.84
2022-08-05T13:36:52.167Z,32.84
2022-08-05T13:40:15.973Z,32.89
2022-08-05T13:43:43.578Z,32.93
2022-08-05T13:47:01.704Z,32.84
2022-08-05T13:50:16.674Z,32.79
2022-08-05T13:53:22.036Z,32.81
2022-08-05T13:56:26.334Z,32.91
2022-08-05T13:59:31.744Z,32.96
2022-08-05T14:02:35.874Z,32.92
2022-08-05T14:06:24.595Z,32.94
2022-08-05T14:09:08.482Z,32.89
2022-08-05T14:12:17.466Z,32.79
2022-08-05T14:16:05.261Z,32.92
2022-08-05T14:18:49.217Z,32.94
2022-08-05T14:22:09.178Z,32.77
2022-08-05T14:25:18.996Z,32.67
2022-08-05T14:28:27.410Z,32.73
2022-08-05T14:40:42.307Z,32.66
2022-08-05T14:44:19.977Z,32.76
2022-08-05T14:48:05.162Z,32.83
2022-08-05T14:50:48.691Z,32.80
2022-08-05T14:54:26.139Z,32.73
2022-08-05T14:57:19.551Z,32.71
2022-08-05T15:00:28.143Z,32.80
2022-08-05T15:03:39.302Z,32.72
2022-08-05T15:06:49.592Z,32.77
2022-08-05T15:09:55.744Z,32.80
2022-08-05T15:13:03.520Z,32.78
2022-08-05T15:16:08.392Z,32.89
2022-08-05T15:19:23.362Z,32.86
2022-08-05T15:22:28.703Z,32.83
2022-08-05T15:31:23.121Z,32.72
2022-08-05T15:34:47.138Z,32.66
2022-08-05T15:38:33.086Z,32.65
2022-08-05T15:41:25.863Z,32.63
2022-08-05T15:45:03.467Z,32.44
2022-08-05T15:48:52.918Z,32.26
2022-08-05T15:52:16.568Z,32.36
2022-08-05T15:56:02.777Z,32.27
2022-08-05T15:59:02.376Z,32.23
2022-08-05T16:02:09.572Z,32.27
2022-08-05T16:05:18.879Z,32.29
2022-08-05T16:08:32.710Z,32.10
2022-08-05T16:11:43.080Z,32.21
2022-08-05T16:14:47.263Z,32.08
2022-08-05T16:17:57.754Z,32.12
2022-08-05T16:21:04.818Z,32.06
2022-08-05T16:24:41.265Z,31.85
2022-08-05T16:35:42.276Z,31.76
2022-08-05T16:39:00.189Z,31.63
2022-08-05T16:42:15.180Z,31.76
2022-08-05T16:46:03.478Z,31.74
2022-08-05T16:49:02.890Z,31.68
2022-08-05T16:52:07.927Z,31.68
2022-08-05T16:55:11.922Z,31.52
2022-08-05T16:58:21.197Z,31.57
2022-08-05T17:01:53.255Z,31.48
2022-08-05T17:09:57.495Z,31.46
2022-08-05T17:13:17.105Z,31.37
2022-08-05T17:16:32.577Z,31.53
2022-08-05T17:19:41.667Z,31.44
2022-08-05T17:22:46.341Z,31.52
2022-08-05T17:25:59.323Z,31.45
2022-08-05T17:29:07.466Z,31.38
2022-08-05T17:32:44.298Z,31.33
2022-08-05T17:40:39.094Z,31.20
2022-08-05T17:43:54.296Z,31.12
2022-08-05T17:47:04.229Z,31.07
2022-08-05T17:54:23.254Z,30.72
2022-08-05T18:01:21.977Z,30.38
2022-08-05T18:04:29.938Z,30.15
2022-08-05T18:07:59.420Z,29.98
2022-08-05T18:11:05.047Z,29.92
2022-08-05T18:14:20.383Z,29.78
2022-08-05T18:22:09.670Z,29.57
2022-08-05T18:25:48.432Z,29.35
2022-08-05T18:29:14.120Z,29.24
2022-08-05T18:33:46.566Z,28.95
2022-08-05T18:37:42.884Z,28.74
2022-08-05T18:41:53.472Z,28.39
2022-08-05T18:44:32.971Z,28.18
2022-08-05T18:48:30.169Z,28.15
2022-08-05T18:52:06.257Z,28.03
2022-08-05T18:55:14.931Z,28.00
2022-08-05T18:58:22.178Z,27.93
2022-08-05T19:01:47.741Z,27.86
2022-08-05T19:05:02.532Z,27.59
2022-08-05T19:18:29.893Z,26.99
2022-08-05T19:21:36.205Z,26.88
2022-08-05T19:25:08.061Z,26.65
2022-08-05T19:28:14.012Z,26.70
2022-08-05T19:31:21.423Z,26.69
2022-08-05T19:34:29.838Z,26.25
2022-08-05T19:37:47.386Z,26.28
2022-08-05T19:40:58.452Z,25.79
2022-08-05T19:44:13.113Z,25.89
2022-08-05T19:47:18.483Z,25.87
2022-08-05T19:50:24.861Z,25.76
2022-08-05T19:54:05.011Z,25.85
2022-08-05T19:57:49.355Z,25.92
2022-08-05T20:00:56.018Z,25.66
2022-08-05T20:04:23.064Z,25.70
2022-08-05T20:07:57.656Z,25.33
2022-08-05T20:11:04.993Z,25.19
2022-08-05T20:14:14.137Z,25.31
2022-08-05T20:17:45.853Z,25.26
2022-08-05T20:20:59.919Z,25.16
2022-08-05T20:24:12.677Z,25.26
2022-08-05T20:27:41.938Z,25.26
2022-08-05T20:30:47.913Z,25.05
2022-08-05T20:33:58.089Z,24.85
2022-08-05T20:37:02.209Z,24.86
2022-08-05T20:40:14.291Z,24.89
2022-08-05T20:43:20.080Z,24.68
2022-08-05T20:46:50.269Z,24.72
2022-08-05T20:50:02.461Z,24.52
2022-08-05T20:53:16.283Z,24.56
2022-08-05T20:56:44.887Z,24.40
2022-08-05T21:00:21.037Z,24.08
2022-08-05T21:03:20.520Z,24.22
2022-08-05T21:06:28.697Z,24.22
2022-08-05T21:09:50.274Z,24.05
2022-08-05T21:13:11.219Z,24.06
2022-08-05T21:16:20.025Z,23.71
2022-08-05T21:19:29.168Z,23.53
2022-08-05T21:22:54.250Z,23.83
2022-08-05T21:25:59.400Z,23.43
2022-08-05T21:29:07.610Z,23.32
2022-08-05T21:32:26.694Z,23.26
2022-08-05T21:36:00.192Z,23.24
2022-08-05T21:39:14.333Z,23.46
2022-08-05T21:42:41.411Z,23.54
2022-08-05T21:46:04.042Z,23.23
2022-08-05T21:49:59.271Z,23.08
2022-08-05T21:52:40.445Z,22.88
2022-08-05T21:56:16.307Z,22.97
2022-08-05T21:59:24.982Z,22.39
2022-08-05T22:02:45.710Z,22.44
2022-08-05T22:05:55.553Z,22.68
2022-08-05T22:09:00.742Z,22.80
2022-08-05T22:12:12.852Z,22.98
2022-08-05T22:16:01.239Z,22.59
2022-08-05T22:20:00.579Z,22.53
2022-08-05T22:22:54.141Z,22.55
2022-08-05T22:26:17.027Z,22.56
2022-08-05T22:29:26.255Z,22.49
2022-08-05T22:32:33.985Z,22.24
2022-08-05T22:35:49.286Z,21.98
2022-08-05T22:38:53.709Z,22.17
2022-08-05T22:42:09.401Z,22.27
2022-08-05T22:45:16.086Z,21.58
2022-08-05T22:48:22.013Z,21.82
2022-08-05T22:52:05.805Z,21.79
2022-08-05T22:55:00.260Z,21.94
2022-08-05T22:58:11.607Z,21.95
2022-08-05T23:01:21.808Z,21.55
2022-08-05T23:04:52.131Z,21.48
2022-08-05T23:08:04.885Z,21.26
2022-08-05T23:11:10.954Z,21.34
2022-08-05T23:14:22.563Z,21.39
2022-08-05T23:18:01.133Z,21.37
2022-08-05T23:21:10.265Z,21.68
2022-08-05T23:24:16.444Z,21.47
2022-08-05T23:31:16.991Z,21.61
2022-08-05T23:34:25.962Z,21.39
2022-08-05T23:37:36.710Z,21.66
2022-08-05T23:44:05.230Z,21.27
2022-08-05T23:47:15.476Z,21.02
2022-08-05T23:50:44.284Z,20.94
2022-08-05T23:53:53.096Z,20.84
2022-08-05T23:57:09.731Z,20.94
